createdAt,value
2017-07-27T00:01:53.550Z,11.77
2017-07-27T00:04:22.443Z,12.30
2017-07-27T00:06:51.369Z,11.20
2017-07-27T00:09:20.253Z,13.50
2017-07-27T00:11:49.210Z,13.00
2017-07-27T00:14:18.116Z,12.87
2017-07-27T00:16:47.008Z,11.97
2017-07-27T00:19:15.924Z,13.50
2017-07-27T00:21:44.824Z,14.20
2017-07-27T00:24:13.776Z,11.60
2017-07-27T00:26:42.663Z,13.03
2017-07-27T00:29:11.564Z,14.93
2017-07-27T00:31:40.446Z,15.33
2017-07-27T00:34:09.372Z,15.43
2017-07-27T00:36:38.262Z,13.87
2017-07-27T00:39:07.184Z,14.30
2017-07-27T00:41:36.119Z,13.57
2017-07-27T00:44:05.013Z,14.50
2017-07-27T00:46:33.908Z,14.10
2017-07-27T00:49:02.823Z,14.93
2017-07-27T00:51:31.713Z,13.20
2017-07-27T00:54:00.628Z,13.70
2017-07-27T00:56:29.599Z,12.87
2017-07-27T00:58:58.515Z,12.67
2017-07-27T01:01:27.430Z,13.10
2017-07-27T01:03:56.327Z,14.50
2017-07-27T01:06:25.271Z,13.00
2017-07-27T01:08:54.177Z,13.90
2017-07-27T01:11:23.101Z,13.43
2017-07-27T01:13:52.009Z,14.10
2017-07-27T01:16:20.911Z,11.67
2017-07-27T01:18:49.968Z,12.10
2017-07-27T01:21:18.857Z,14.03
2017-07-27T01:23:47.733Z,12.90
2017-07-27T01:26:16.636Z,12.23
2017-07-27T01:28:45.524Z,13.70
2017-07-27T01:31:14.460Z,15.17
2017-07-27T01:33:43.374Z,12.20
2017-07-27T01:36:12.293Z,11.50
2017-07-27T01:38:41.188Z,12.63
2017-07-27T01:41:10.079Z,13.30
2017-07-27T01:43:38.982Z,12.23
2017-07-27T01:46:07.876Z,12.93
2017-07-27T01:48:36.807Z,13.10
2017-07-27T01:51:05.756Z,11.57
2017-07-27T01:53:34.654Z,12.17
2017-07-27T01:56:03.543Z,11.60
2017-07-27T01:58:32.447Z,13.43
2017-07-27T02:01:01.329Z,14.30
2017-07-27T02:03:30.422Z,12.97
2017-07-27T02:05:59.316Z,13.03
2017-07-27T02:08:28.241Z,14.40
2017-07-27T02:10:57.131Z,13.50
2017-07-27T02:13:26.055Z,13.90
2017-07-27T02:15:55.011Z,14.23
2017-07-27T02:18:23.975Z,13.30
2017-07-27T02:20:53.091Z,15.40
2017-07-27T02:23:21.993Z,14.07
2017-07-27T02:25:51.022Z,13.23
2017-07-27T02:28:19.915Z,15.00
2017-07-27T02:30:48.827Z,14.13
2017-07-27T02:33:17.727Z,13.23
2017-07-27T02:35:46.645Z,14.97
2017-07-27T02:38:15.532Z,13.50
2017-07-27T02:40:44.467Z,13.20
2017-07-27T02:43:13.381Z,12.73
2017-07-27T02:45:42.372Z,13.60
2017-07-27T02:48:11.264Z,12.90
2017-07-27T02:50:40.304Z,11.77
2017-07-27T02:53:09.211Z,12.10
2017-07-27T02:55:38.123Z,12.33
2017-07-27T02:58:07.012Z,12.70
2017-07-27T03:00:35.946Z,12.00
2017-07-27T03:03:04.988Z,13.10
2017-07-27T03:05:33.866Z,13.03
2017-07-27T03:08:02.770Z,14.13
2017-07-27T03:10:31.686Z,11.70
2017-07-27T03:13:00.633Z,10.50
2017-07-27T03:15:29.544Z,11.23
2017-07-27T03:17:58.462Z,11.60
2017-07-27T03:20:27.378Z,11.00
2017-07-27T03:22:56.281Z,10.90
2017-07-27T03:25:25.303Z,11.83
2017-07-27T03:27:54.247Z,12.10
2017-07-27T03:30:23.151Z,12.50
2017-07-27T03:32:52.277Z,12.67
2017-07-27T03:35:21.170Z,13.13
2017-07-27T03:37:50.114Z,11.53
2017-07-27T03:40:19.015Z,11.20
2017-07-27T03:42:47.954Z,12.00
2017-07-27T03:45:16.847Z,11.20
2017-07-27T03:47:45.729Z,10.90
2017-07-27T03:50:14.728Z,11.17
2017-07-27T03:52:43.623Z,10.10
2017-07-27T03:55:12.540Z,9.67
2017-07-27T03:57:41.438Z,10.90
2017-07-27T04:00:10.362Z,10.00
2017-07-27T04:02:39.283Z,10.50
2017-07-27T04:05:08.204Z,10.50
2017-07-27T04:07:37.183Z,9.30
2017-07-27T04:10:06.155Z,10.60
2017-07-27T04:12:35.051Z,10.53
2017-07-27T04:15:03.968Z,10.80
2017-07-27T04:17:32.867Z,10.80
2017-07-27T04:20:01.763Z,10.17
2017-07-27T04:22:30.645Z,9.70
2017-07-27T04:24:59.573Z,10.20
2017-07-27T04:27:28.482Z,11.53
2017-07-27T04:29:57.411Z,10.50
2017-07-27T04:32:26.312Z,11.30
2017-07-27T04:34:55.202Z,11.37
2017-07-27T04:37:24.163Z,10.63
2017-07-27T04:39:53.078Z,11.10
2017-07-27T04:42:21.999Z,9.70
2017-07-27T04:44:50.881Z,9.93
2017-07-27T04:47:19.804Z,9.80
2017-07-27T04:49:48.698Z,8.13
2017-07-27T04:52:17.627Z,10.57
2017-07-27T04:54:46.516Z,10.00
2017-07-27T04:57:30.322Z,9.50
2017-07-27T04:59:59.217Z,9.20
2017-07-27T05:02:28.140Z,8.53
2017-07-27T05:04:57.131Z,8.40
2017-07-27T05:07:26.051Z,8.60
2017-07-27T05:09:54.942Z,9.27
2017-07-27T05:12:23.901Z,7.60
2017-07-27T05:14:52.795Z,9.07
2017-07-27T05:17:21.787Z,7.10
2017-07-27T05:19:50.712Z,7.67
2017-07-27T05:22:19.590Z,7.37
2017-07-27T05:24:48.489Z,7.53
2017-07-27T05:27:17.428Z,7.60
2017-07-27T05:29:46.340Z,7.40
2017-07-27T05:32:15.257Z,7.33
2017-07-27T05:34:44.171Z,7.13
2017-07-27T05:37:13.089Z,7.30
2017-07-27T05:39:42.025Z,7.83
2017-07-27T05:42:10.919Z,8.17
2017-07-27T05:44:39.835Z,10.00
2017-07-27T05:47:08.728Z,7.73
2017-07-27T05:49:37.683Z,7.47
2017-07-27T05:52:06.580Z,7.70
2017-07-27T05:54:35.497Z,7.37
2017-07-27T05:57:04.397Z,7.43
2017-07-27T05:59:33.323Z,7.67
2017-07-27T06:02:02.241Z,7.87
2017-07-27T06:04:31.130Z,7.80
2017-07-27T06:07:00.056Z,7.53
2017-07-27T06:09:29.089Z,8.10
2017-07-27T06:11:58.010Z,7.50
2017-07-27T06:14:26.901Z,7.70
2017-07-27T06:16:55.805Z,7.83
2017-07-27T06:19:24.682Z,9.20
2017-07-27T06:21:53.592Z,9.23
2017-07-27T06:24:22.486Z,9.27
2017-07-27T06:26:51.403Z,9.53
2017-07-27T06:29:20.305Z,10.10
2017-07-27T06:31:49.224Z,9.03
2017-07-27T06:34:18.109Z,9.73
2017-07-27T06:36:47.032Z,9.70
2017-07-27T06:39:15.960Z,11.73
2017-07-27T06:41:44.849Z,10.17
2017-07-27T06:44:14.694Z,8.63
2017-07-27T06:46:43.595Z,10.47
2017-07-27T06:49:12.502Z,9.57
2017-07-27T06:51:41.436Z,9.40
2017-07-27T06:54:10.356Z,10.53
2017-07-27T06:56:39.249Z,10.17
2017-07-27T06:59:08.177Z,11.63
2017-07-27T07:01:37.062Z,11.73
2017-07-27T07:04:05.988Z,10.20
2017-07-27T07:06:34.926Z,10.47
2017-07-27T07:09:03.834Z,9.73
2017-07-27T07:11:32.793Z,10.50
2017-07-27T07:14:01.795Z,9.70
2017-07-27T07:16:30.678Z,10.07
2017-07-27T07:18:59.599Z,10.37
2017-07-27T07:21:28.503Z,10.90
2017-07-27T07:23:57.445Z,11.67
2017-07-27T07:26:26.337Z,9.90
2017-07-27T07:28:55.222Z,9.37
2017-07-27T07:31:24.157Z,10.80
2017-07-27T07:33:53.071Z,12.57
2017-07-27T07:36:21.996Z,14.07
2017-07-27T07:38:50.897Z,10.93
2017-07-27T07:41:19.853Z,10.70
2017-07-27T07:43:48.802Z,10.07
2017-07-27T07:46:17.729Z,9.47
2017-07-27T07:48:46.686Z,11.00
2017-07-27T07:51:15.614Z,8.70
2017-07-27T07:53:44.541Z,9.27
2017-07-27T07:56:13.544Z,8.67
2017-07-27T07:58:42.638Z,9.80
2017-07-27T08:01:11.582Z,9.50
2017-07-27T08:03:40.569Z,8.83
2017-07-27T08:06:09.509Z,10.00
2017-07-27T08:08:44.127Z,9.70
2017-07-27T08:11:13.059Z,10.10
2017-07-27T08:13:42.010Z,8.70
2017-07-27T08:16:10.915Z,9.50
2017-07-27T08:18:39.899Z,8.30
2017-07-27T08:21:08.798Z,7.60
2017-07-27T08:23:37.809Z,7.47
2017-07-27T08:26:06.713Z,7.70
2017-07-27T08:28:35.640Z,8.73
2017-07-27T08:31:04.527Z,7.50
2017-07-27T08:33:33.420Z,8.10
2017-07-27T08:36:02.311Z,8.00
2017-07-27T08:38:31.300Z,7.93
2017-07-27T08:41:00.223Z,7.53
2017-07-27T08:43:29.218Z,7.43
2017-07-27T08:45:58.127Z,7.00
2017-07-27T08:48:27.077Z,7.20
2017-07-27T08:50:55.974Z,8.10
2017-07-27T08:53:24.890Z,6.07
2017-07-27T08:55:53.814Z,7.13
2017-07-27T08:58:22.703Z,7.07
2017-07-27T09:00:51.737Z,6.77
2017-07-27T09:03:20.633Z,7.70
2017-07-27T09:05:49.602Z,6.90
2017-07-27T09:08:18.518Z,7.63
2017-07-27T09:10:47.409Z,6.93
2017-07-27T09:13:16.313Z,7.03
2017-07-27T09:15:45.225Z,6.40
2017-07-27T09:18:14.114Z,6.80
2017-07-27T09:20:43.013Z,6.53
2017-07-27T09:23:11.896Z,6.12
2017-07-27T09:25:40.786Z,5.62
2017-07-27T09:28:09.710Z,6.07
2017-07-27T09:30:38.666Z,6.10
2017-07-27T09:33:07.569Z,5.70
2017-07-27T09:35:36.480Z,5.95
2017-07-27T09:38:05.380Z,5.22
2017-07-27T09:40:34.276Z,5.87
2017-07-27T09:43:03.193Z,6.10
2017-07-27T09:45:32.085Z,5.33
2017-07-27T09:48:00.988Z,5.83
2017-07-27T09:50:29.923Z,6.10
2017-07-27T09:52:59.639Z,6.15
2017-07-27T09:55:29.386Z,6.07
2017-07-27T09:58:04.115Z,6.72
2017-07-27T10:00:33.058Z,6.37
2017-07-27T10:03:02.020Z,6.47
2017-07-27T10:05:30.942Z,6.10
2017-07-27T10:07:59.875Z,6.50
2017-07-27T10:10:28.771Z,7.03
2017-07-27T10:12:57.699Z,7.00
2017-07-27T10:15:26.573Z,7.03
2017-07-27T10:17:55.620Z,6.30
2017-07-27T10:20:24.522Z,7.60
2017-07-27T10:22:56.415Z,7.43
2017-07-27T10:25:25.292Z,7.22
2017-07-27T10:27:54.170Z,6.75
2017-07-27T10:30:23.073Z,6.90
2017-07-27T10:32:51.951Z,8.00
2017-07-27T10:35:20.843Z,7.62
2017-07-27T10:37:49.773Z,7.10
2017-07-27T10:40:18.672Z,7.77
2017-07-27T10:42:47.551Z,8.60
2017-07-27T10:45:16.451Z,8.10
2017-07-27T10:47:45.322Z,8.80
2017-07-27T10:50:14.229Z,7.23
2017-07-27T10:52:43.107Z,8.30
2017-07-27T10:55:11.993Z,8.33
2017-07-27T10:57:40.885Z,8.23
2017-07-27T11:00:09.797Z,9.77
2017-07-27T11:02:38.679Z,8.43
2017-07-27T11:05:07.570Z,8.10
2017-07-27T11:07:36.445Z,7.27
2017-07-27T11:10:05.323Z,8.53
2017-07-27T11:12:34.223Z,9.00
2017-07-27T11:15:03.102Z,8.10
2017-07-27T11:17:32.014Z,7.50
2017-07-27T11:20:00.894Z,7.43
2017-07-27T11:22:29.785Z,6.57
2017-07-27T11:24:58.659Z,7.37
2017-07-27T11:27:27.547Z,7.33
2017-07-27T11:29:56.417Z,7.10
2017-07-27T11:32:25.316Z,7.20
2017-07-27T11:34:54.195Z,9.40
2017-07-27T11:37:23.078Z,8.03
2017-07-27T11:39:51.957Z,9.23
2017-07-27T11:42:20.841Z,8.27
2017-07-27T11:44:49.723Z,8.47
2017-07-27T11:47:18.616Z,7.70
2017-07-27T11:49:47.490Z,8.20
2017-07-27T11:52:16.364Z,7.60
2017-07-27T11:54:45.263Z,7.13
2017-07-27T11:57:14.144Z,7.30
2017-07-27T11:59:43.033Z,8.03
2017-07-27T12:02:11.920Z,8.40
2017-07-27T12:04:40.818Z,9.40
2017-07-27T12:07:09.697Z,10.83
2017-07-27T12:09:38.581Z,9.80
2017-07-27T12:12:07.467Z,8.87
2017-07-27T12:14:36.371Z,8.30
2017-07-27T12:17:05.255Z,10.70
2017-07-27T12:19:34.142Z,9.00
2017-07-27T12:22:03.012Z,8.63
2017-07-27T12:24:31.910Z,9.50
2017-07-27T12:27:00.786Z,10.07
2017-07-27T12:29:30.571Z,9.10
2017-07-27T12:31:59.471Z,9.47
2017-07-27T12:34:28.355Z,7.73
2017-07-27T12:36:57.251Z,6.93
2017-07-27T12:39:26.126Z,7.27
2017-07-27T12:41:55.015Z,8.70
2017-07-27T12:44:23.890Z,11.30
2017-07-27T12:46:52.797Z,12.10
2017-07-27T12:49:21.670Z,12.93
2017-07-27T12:51:50.576Z,14.30
2017-07-27T12:54:19.454Z,14.70
2017-07-27T12:56:48.342Z,14.20
2017-07-27T12:59:17.226Z,16.13
2017-07-27T13:01:46.109Z,15.30
2017-07-27T13:04:15.000Z,15.43
2017-07-27T13:06:43.888Z,15.10
2017-07-27T13:09:12.770Z,15.97
2017-07-27T13:11:41.651Z,14.63
2017-07-27T13:14:10.558Z,17.30
2017-07-27T13:16:39.450Z,15.50
2017-07-27T13:19:08.337Z,14.50
2017-07-27T13:21:37.209Z,15.90
2017-07-27T13:24:06.102Z,14.67
2017-07-27T13:26:34.991Z,15.17
2017-07-27T13:29:03.890Z,15.43
2017-07-27T13:31:32.782Z,13.10
2017-07-27T13:34:01.677Z,13.77
2017-07-27T13:36:30.559Z,13.87
2017-07-27T13:38:59.471Z,15.17
2017-07-27T13:41:28.346Z,12.90
2017-07-27T13:43:57.237Z,14.50
2017-07-27T13:46:26.119Z,13.87
2017-07-27T13:48:55.027Z,12.23
2017-07-27T13:51:23.902Z,11.37
2017-07-27T13:53:52.799Z,12.93
2017-07-27T13:56:21.674Z,12.23
2017-07-27T13:58:50.569Z,12.03
2017-07-27T14:01:19.489Z,10.60
2017-07-27T14:03:48.365Z,12.57
2017-07-27T14:06:17.257Z,12.93
2017-07-27T14:08:46.144Z,11.33
2017-07-27T14:11:15.043Z,12.30
2017-07-27T14:13:43.928Z,11.33
2017-07-27T14:16:12.825Z,10.60
2017-07-27T14:18:41.715Z,10.73
2017-07-27T14:21:10.611Z,9.33
2017-07-27T14:23:39.495Z,8.60
2017-07-27T14:26:08.395Z,8.67
2017-07-27T14:28:37.277Z,8.27
2017-07-27T14:31:06.176Z,7.80
2017-07-27T14:33:35.046Z,7.40
2017-07-27T14:36:03.935Z,6.40
2017-07-27T14:38:32.834Z,6.90
2017-07-27T14:41:01.711Z,6.57
2017-07-27T14:43:30.610Z,6.07
2017-07-27T14:45:59.487Z,5.70
2017-07-27T14:48:28.373Z,5.90
2017-07-27T14:50:57.256Z,5.63
2017-07-27T14:53:26.158Z,6.10
2017-07-27T14:55:55.034Z,6.87
2017-07-27T14:58:23.929Z,6.23
2017-07-27T15:00:52.789Z,5.80
2017-07-27T15:03:21.687Z,6.60
2017-07-27T15:05:50.603Z,5.93
2017-07-27T15:08:19.494Z,6.10
2017-07-27T15:10:48.368Z,6.87
2017-07-27T15:13:17.267Z,6.73
2017-07-27T15:15:46.138Z,6.23
2017-07-27T15:18:15.019Z,5.60
2017-07-27T15:20:43.919Z,5.87
2017-07-27T15:23:12.814Z,6.97
2017-07-27T15:25:41.719Z,5.90
2017-07-27T15:28:10.587Z,6.30
2017-07-27T15:30:39.483Z,7.17
2017-07-27T15:33:08.353Z,6.57
2017-07-27T15:35:37.255Z,5.70
2017-07-27T15:38:06.143Z,6.40
2017-07-27T15:40:35.036Z,5.93
2017-07-27T15:43:03.913Z,6.57
2017-07-27T15:45:32.823Z,6.33
2017-07-27T15:48:01.711Z,6.23
2017-07-27T15:50:30.599Z,7.13
2017-07-27T15:52:59.488Z,6.27
2017-07-27T15:55:28.386Z,7.40
2017-07-27T15:57:57.279Z,6.97
2017-07-27T16:00:26.196Z,7.20
2017-07-27T16:02:55.065Z,5.90
2017-07-27T16:05:23.933Z,6.50
2017-07-27T16:07:52.832Z,6.97
2017-07-27T16:10:21.751Z,6.10
2017-07-27T16:12:50.647Z,6.17
2017-07-27T16:15:19.550Z,6.80
2017-07-27T16:17:48.445Z,6.77
2017-07-27T16:20:17.333Z,6.37
2017-07-27T16:22:46.228Z,7.40
2017-07-27T16:25:15.112Z,6.93
2017-07-27T16:27:44.012Z,7.07
2017-07-27T16:30:12.882Z,6.70
2017-07-27T16:32:41.767Z,7.70
2017-07-27T16:35:10.639Z,6.90
2017-07-27T16:37:39.544Z,7.63
2017-07-27T16:40:08.429Z,6.60
2017-07-27T16:42:37.331Z,6.97
2017-07-27T16:45:06.207Z,7.37
2017-07-27T16:47:35.090Z,8.03
2017-07-27T16:50:03.963Z,6.93
2017-07-27T16:52:32.863Z,7.00
2017-07-27T16:55:01.747Z,8.10
2017-07-27T16:57:30.624Z,7.97
2017-07-27T16:59:59.593Z,8.63
2017-07-27T17:02:28.473Z,8.40
2017-07-27T17:04:57.376Z,8.17
2017-07-27T17:07:26.260Z,8.13
2017-07-27T17:09:55.163Z,8.60
2017-07-27T17:12:24.046Z,7.37
2017-07-27T17:14:52.932Z,7.77
2017-07-27T17:17:21.810Z,8.37
2017-07-27T17:19:50.715Z,8.00
2017-07-27T17:22:19.596Z,8.13
2017-07-27T17:24:48.487Z,9.03
2017-07-27T17:27:17.367Z,8.50
2017-07-27T17:29:46.266Z,7.87
2017-07-27T17:32:15.133Z,8.03
2017-07-27T17:34:44.017Z,7.53
2017-07-27T17:37:12.903Z,8.43
2017-07-27T17:39:41.791Z,7.63
2017-07-27T17:42:10.695Z,10.87
2017-07-27T17:44:39.593Z,8.17
2017-07-27T17:47:08.503Z,7.27
2017-07-27T17:49:37.384Z,8.33
2017-07-27T17:52:06.273Z,7.57
2017-07-27T17:54:35.142Z,8.37
2017-07-27T17:57:04.049Z,9.03
2017-07-27T17:59:32.925Z,8.17
2017-07-27T18:02:01.828Z,7.60
2017-07-27T18:04:30.727Z,9.50
2017-07-27T18:06:59.613Z,9.30
2017-07-27T18:09:28.487Z,8.00
2017-07-27T18:11:57.368Z,8.40
2017-07-27T18:14:26.256Z,9.03
2017-07-27T18:16:55.155Z,9.70
2017-07-27T18:19:24.036Z,9.50
2017-07-27T18:21:52.901Z,9.43
2017-07-27T18:24:21.807Z,9.50
2017-07-27T18:26:50.679Z,9.17
2017-07-27T18:29:19.584Z,8.80
2017-07-27T18:31:48.462Z,9.20
2017-07-27T18:34:17.354Z,10.30
2017-07-27T18:36:46.225Z,9.27
2017-07-27T18:39:15.123Z,9.00
2017-07-27T18:41:44.016Z,8.93
2017-07-27T18:44:12.918Z,9.23
2017-07-27T18:46:41.781Z,9.77
2017-07-27T18:49:10.677Z,9.00
2017-07-27T18:51:39.557Z,9.13
2017-07-27T18:54:08.455Z,10.20
2017-07-27T18:56:37.340Z,12.00
2017-07-27T18:59:06.253Z,9.37
2017-07-27T19:01:35.131Z,8.90
2017-07-27T19:04:04.002Z,8.80
2017-07-27T19:06:32.890Z,9.60
2017-07-27T19:09:01.780Z,10.00
2017-07-27T19:11:30.688Z,9.17
2017-07-27T19:13:59.567Z,8.60
2017-07-27T19:16:28.453Z,8.27
2017-07-27T19:18:57.333Z,6.40
2017-07-27T19:21:26.214Z,4.87
2017-07-27T19:23:55.091Z,3.97
2017-07-27T19:26:23.984Z,3.67
2017-07-27T19:28:52.858Z,3.20
2017-07-27T19:31:21.757Z,2.80
2017-07-27T19:33:50.641Z,2.57
2017-07-27T19:36:19.549Z,3.60
2017-07-27T19:38:48.455Z,3.00
2017-07-27T19:41:17.345Z,2.50
2017-07-27T19:43:46.224Z,2.00
2017-07-27T19:46:15.107Z,2.83
2017-07-27T19:48:43.999Z,2.40
2017-07-27T19:51:12.865Z,3.80
2017-07-27T19:53:41.744Z,4.53
2017-07-27T19:56:10.610Z,3.97
2017-07-27T19:58:39.498Z,2.03
2017-07-27T20:01:08.374Z,2.20
2017-07-27T20:03:37.275Z,3.23
2017-07-27T20:06:06.155Z,3.50
2017-07-27T20:08:35.038Z,2.70
2017-07-27T20:11:03.924Z,3.40
2017-07-27T20:13:32.831Z,2.90
2017-07-27T20:16:01.706Z,4.33
2017-07-27T20:18:30.590Z,3.73
2017-07-27T20:20:59.473Z,3.50
2017-07-27T20:23:28.370Z,3.10
2017-07-27T20:25:57.243Z,3.13
2017-07-27T20:28:26.135Z,3.00
2017-07-27T20:30:55.011Z,3.00
2017-07-27T20:33:23.892Z,3.00
2017-07-27T20:35:52.769Z,3.73
2017-07-27T20:38:21.667Z,4.97
2017-07-27T20:40:50.543Z,3.30
2017-07-27T20:43:19.423Z,3.57
2017-07-27T20:45:48.308Z,3.50
2017-07-27T20:48:17.188Z,5.97
2017-07-27T20:50:46.088Z,3.20
2017-07-27T20:53:14.967Z,4.13
2017-07-27T20:55:43.864Z,3.90
2017-07-27T20:58:12.733Z,3.93
2017-07-27T21:00:41.618Z,3.47
2017-07-27T21:03:10.474Z,4.27
2017-07-27T21:05:39.367Z,4.37
2017-07-27T21:08:08.249Z,4.83
2017-07-27T21:10:37.155Z,4.40
2017-07-27T21:13:06.030Z,4.37
2017-07-27T21:15:34.915Z,5.10
2017-07-27T21:18:03.791Z,3.87
2017-07-27T21:20:32.692Z,4.63
2017-07-27T21:23:01.572Z,4.90
2017-07-27T21:25:30.454Z,4.73
2017-07-27T21:27:59.337Z,4.53
2017-07-27T21:30:28.218Z,4.80
2017-07-27T21:32:57.132Z,4.80
2017-07-27T21:35:26.016Z,5.53
2017-07-27T21:37:54.910Z,4.63
2017-07-27T21:40:23.781Z,4.80
2017-07-27T21:42:52.670Z,4.70
2017-07-27T21:45:21.538Z,5.70
2017-07-27T21:47:50.439Z,4.50
2017-07-27T21:50:19.314Z,4.27
2017-07-27T21:52:48.208Z,4.60
2017-07-27T21:55:17.078Z,5.10
2017-07-27T21:57:45.971Z,3.87
2017-07-27T22:00:14.841Z,4.10
2017-07-27T22:02:43.742Z,4.50
2017-07-27T22:05:12.619Z,3.87
2017-07-27T22:07:41.489Z,3.73
2017-07-27T22:10:10.373Z,5.33
2017-07-27T22:12:39.251Z,4.13
2017-07-27T22:15:08.145Z,5.43
2017-07-27T22:17:37.020Z,4.00
2017-07-27T22:20:05.917Z,4.70
2017-07-27T22:22:34.791Z,4.23
2017-07-27T22:25:03.677Z,4.20
2017-07-27T22:27:32.547Z,4.80
2017-07-27T22:30:01.447Z,4.53
2017-07-27T22:32:30.330Z,4.90
2017-07-27T22:34:59.236Z,4.07
2017-07-27T22:37:28.114Z,5.13
2017-07-27T22:39:57.007Z,4.00
2017-07-27T22:42:25.887Z,5.17
2017-07-27T22:44:54.792Z,4.40
2017-07-27T22:47:23.675Z,4.30
2017-07-27T22:49:52.572Z,4.53
2017-07-27T22:52:21.442Z,4.90
2017-07-27T22:54:50.321Z,5.17
2017-07-27T22:57:19.194Z,4.63
2017-07-27T22:59:48.082Z,4.50
2017-07-27T23:02:16.945Z,4.73
2017-07-27T23:04:45.817Z,4.60
2017-07-27T23:07:14.711Z,4.83
2017-07-27T23:09:43.581Z,5.33
2017-07-27T23:12:12.464Z,4.70
2017-07-27T23:14:41.345Z,5.13
2017-07-27T23:17:10.237Z,4.50
2017-07-27T23:19:39.110Z,5.30
2017-07-27T23:22:08.006Z,5.20
2017-07-27T23:24:36.882Z,5.63
2017-07-27T23:27:05.780Z,5.60
2017-07-27T23:29:34.654Z,5.10
2017-07-27T23:32:03.541Z,4.83
2017-07-27T23:34:32.405Z,4.70
2017-07-27T23:37:01.288Z,5.53
2017-07-27T23:39:30.171Z,5.70
2017-07-27T23:41:59.058Z,5.60
2017-07-27T23:44:27.939Z,5.50
2017-07-27T23:46:56.839Z,5.00
2017-07-27T23:49:25.711Z,5.43
2017-07-27T23:51:54.597Z,6.00
2017-07-27T23:54:23.492Z,5.63
2017-07-27T23:56:52.375Z,5.93
2017-07-27T23:59:21.276Z,6.10
